Kandilousa — SYIF — position and weather

sailwx.info

Track history (hours):
 
Tides and Currents Weather Stations Pressure Air Temp Water Temp Dewpoint Dewpoint Depression Visibility Wind Speed Wind Dir Waves Ship Positions

Kandilousa

Last reported at 2015-May-18 19:23 UTC. Time now 2015-May-23 11:58 UTC.
Position N 02°05' E 102°07'.

Length 183 m; draft 8 m.

Type: Tanker. MMSI: 239354000.

Date/timePositionNaut miles runAvg speedWind from/ knotsBaromVisibWave heightAir tempDewpointWater temp
2015-May-18 19:23N 02°05' E 102°07'1214.8
2015-May-18 18:33N 01°57' E 102°16'1414.5
2015-May-18 17:33N 01°51' E 102°29'1513.9
2015-May-18 16:27N 01°45' E 102°43'1512.7
2015-May-18 15:16N 01°38' E 102°57'812.0
2015-May-18 14:33N 01°34' E 103°04'1311.9
2015-May-18 13:29N 01°25' E 103°13'3712.7
2015-May-18 10:33N 01°10' E 103°47'10 9.7
2015-May-18 09:33N 01°16' E 103°55'0 0.1
2015-May-18 08:31N 01°16' E 103°55'0 0.1
2015-May-18 07:31N 01°16' E 103°55'0 0.0
2015-May-18 06:13N 01°16' E 103°55'0 0.0
2015-May-18 05:19N 01°16' E 103°55'0 0.1
2015-May-18 04:31N 01°16' E 103°55'0 0.1
2015-May-18 03:31N 01°16' E 103°55'0 0.1
2015-May-18 02:25N 01°16' E 103°55'0 0.1
2015-May-18 01:28N 01°16' E 103°55'0 0.0
2015-May-18 00:31N 01°16' E 103°55'0 0.1
2015-May-17 23:28N 01°16' E 103°55'0 0.0
2015-May-17 22:31N 01°16' E 103°55'0 0.0
2015-May-17 21:25N 01°16' E 103°55'0 0.1
2015-May-17 20:25N 01°16' E 103°55'0 0.0
2015-May-17 19:25N 01°16' E 103°55'0 0.0
2015-May-17 18:31N 01°16' E 103°55'0 0.0
2015-May-17 17:28N 01°16' E 103°55'0 0.1
2015-May-17 16:31N 01°16' E 103°55'0 0.1
2015-May-17 15:31N 01°16' E 103°55'0 0.1
2015-May-17 14:25N 01°16' E 103°54'0 0.0
2015-May-17 13:07N 01°16' E 103°54'0 0.0
2015-May-17 12:19N 01°16' E 103°54'0 0.0
2015-May-17 11:28N 01°16' E 103°54'0 0.0
2015-May-17 10:31N 01°16' E 103°54'0 0.1
2015-May-17 09:16N 01°16' E 103°55'0 0.0
2015-May-17 08:31N 01°16' E 103°55'0 0.0
2015-May-17 07:31N 01°16' E 103°55'0 0.0
2015-May-17 06:22N 01°16' E 103°55'0 0.0
2015-May-17 05:25N 01°16' E 103°55'0 0.1
2015-May-17 04:31N 01°16' E 103°55'0 0.0
2015-May-17 03:25N 01°16' E 103°55'0 0.1
2015-May-17 02:25N 01°16' E 103°54'0 0.1
2015-May-17 01:31N 01°16' E 103°55'0 0.0
2015-May-17 00:32N 01°16' E 103°55'0 0.1
2015-May-16 23:26N 01°16' E 103°55'0 0.0
2015-May-16 22:17N 01°16' E 103°55'0 0.0
2015-May-16 21:32N 01°16' E 103°55'0 0.0
2015-May-16 20:32N 01°16' E 103°55'0 0.1
2015-May-16 19:20N 01°16' E 103°55'0 0.0
2015-May-16 18:32N 01°16' E 103°55'0 0.0
2015-May-16 17:23N 01°16' E 103°55'0 0.1
2015-May-16 16:26N 01°16' E 103°55'0 0.0
2015-May-16 15:32N 01°16' E 103°55'0 0.1
2015-May-16 14:26N 01°16' E 103°55'0 0.1
2015-May-16 13:32N 01°16' E 103°54'0 0.0
2015-May-16 12:26N 01°16' E 103°54'0 0.0
2015-May-16 11:32N 01°16' E 103°54'0 0.0
2015-May-16 10:33N 01°16' E 103°54'0 0.0
2015-May-16 09:34N 01°16' E 103°54'0 0.1
2015-May-16 08:33N 01°16' E 103°55'0 0.1
2015-May-16 07:33N 01°16' E 103°55'0 0.0
2015-May-16 06:33N 01°16' E 103°55'5 5.2
2015-May-16 05:33N 01°16' E 103°60'5 5.3
2015-May-16 04:33N 01°17' E 104°05'7 7.3
2015-May-16 03:33N 01°18' E 104°12'  
Track history (hours):
 
Tides and Currents Weather Stations Pressure Air Temp Water Temp Dewpoint Dewpoint Depression Visibility Wind Speed Wind Dir Waves Ship Positions

Kandilousa

Last reported at 2015-May-18 19:23 UTC. Time now 2015-May-23 11:58 UTC.
Position N 02°05' E 102°07'.

Length 183 m; draft 8 m.

Type: Tanker. MMSI: 239354000.

Date/timePositionNaut miles runAvg speedWind from/ knotsBaromVisibWave heightAir tempDewpointWater temp
2015-May-18 19:23N 02°05' E 102°07'1214.8
2015-May-18 18:33N 01°57' E 102°16'1414.5
2015-May-18 17:33N 01°51' E 102°29'1513.9
2015-May-18 16:27N 01°45' E 102°43'1512.7
2015-May-18 15:16N 01°38' E 102°57'812.0
2015-May-18 14:33N 01°34' E 103°04'1311.9
2015-May-18 13:29N 01°25' E 103°13'3712.7
2015-May-18 10:33N 01°10' E 103°47'10 9.7
2015-May-18 09:33N 01°16' E 103°55'0 0.1
2015-May-18 08:31N 01°16' E 103°55'0 0.1
2015-May-18 07:31N 01°16' E 103°55'0 0.0
2015-May-18 06:13N 01°16' E 103°55'0 0.0
2015-May-18 05:19N 01°16' E 103°55'0 0.1
2015-May-18 04:31N 01°16' E 103°55'0 0.1
2015-May-18 03:31N 01°16' E 103°55'0 0.1
2015-May-18 02:25N 01°16' E 103°55'0 0.1
2015-May-18 01:28N 01°16' E 103°55'0 0.0
2015-May-18 00:31N 01°16' E 103°55'0 0.1
2015-May-17 23:28N 01°16' E 103°55'0 0.0
2015-May-17 22:31N 01°16' E 103°55'0 0.0
2015-May-17 21:25N 01°16' E 103°55'0 0.1
2015-May-17 20:25N 01°16' E 103°55'0 0.0
2015-May-17 19:25N 01°16' E 103°55'0 0.0
2015-May-17 18:31N 01°16' E 103°55'0 0.0
2015-May-17 17:28N 01°16' E 103°55'0 0.1
2015-May-17 16:31N 01°16' E 103°55'0 0.1
2015-May-17 15:31N 01°16' E 103°55'0 0.1
2015-May-17 14:25N 01°16' E 103°54'0 0.0
2015-May-17 13:07N 01°16' E 103°54'0 0.0
2015-May-17 12:19N 01°16' E 103°54'0 0.0
2015-May-17 11:28N 01°16' E 103°54'0 0.0
2015-May-17 10:31N 01°16' E 103°54'0 0.1
2015-May-17 09:16N 01°16' E 103°55'0 0.0
2015-May-17 08:31N 01°16' E 103°55'0 0.0
2015-May-17 07:31N 01°16' E 103°55'0 0.0
2015-May-17 06:22N 01°16' E 103°55'0 0.0
2015-May-17 05:25N 01°16' E 103°55'0 0.1
2015-May-17 04:31N 01°16' E 103°55'0 0.0
2015-May-17 03:25N 01°16' E 103°55'0 0.1
2015-May-17 02:25N 01°16' E 103°54'0 0.1
2015-May-17 01:31N 01°16' E 103°55'0 0.0
2015-May-17 00:32N 01°16' E 103°55'0 0.1
2015-May-16 23:26N 01°16' E 103°55'0 0.0
2015-May-16 22:17N 01°16' E 103°55'0 0.0
2015-May-16 21:32N 01°16' E 103°55'0 0.0
2015-May-16 20:32N 01°16' E 103°55'0 0.1
2015-May-16 19:20N 01°16' E 103°55'0 0.0
2015-May-16 18:32N 01°16' E 103°55'0 0.0
2015-May-16 17:23N 01°16' E 103°55'0 0.1
2015-May-16 16:26N 01°16' E 103°55'0 0.0
2015-May-16 15:32N 01°16' E 103°55'0 0.1
2015-May-16 14:26N 01°16' E 103°55'0 0.1
2015-May-16 13:32N 01°16' E 103°54'0 0.0
2015-May-16 12:26N 01°16' E 103°54'0 0.0
2015-May-16 11:32N 01°16' E 103°54'0 0.0
2015-May-16 10:33N 01°16' E 103°54'0 0.0
2015-May-16 09:34N 01°16' E 103°54'0 0.1
2015-May-16 08:33N 01°16' E 103°55'0 0.1
2015-May-16 07:33N 01°16' E 103°55'0 0.0
2015-May-16 06:33N 01°16' E 103°55'5 5.2
2015-May-16 05:33N 01°16' E 103°60'5 5.3
2015-May-16 04:33N 01°17' E 104°05'7 7.3
2015-May-16 03:33N 01°18' E 104°12'  

Dump ship's entire track history